Time;durP1;ratioP1;P1;durP2;ratioP2;P2;SDS_P1;SDS_P2;PMS_P1;PMS_P2;Temp;Humidity;BMP_temperature;BMP_pressure;BME280_temperature;BME280_humidity;BME280_pressure;Samples;Min_cycle;Max_cycle;Signal;HPM_P1;HPM_P2
2023/09/05 00:01:48;;;;;;;;;;;23.30;64.50;;;;;;5093430;28;19912;-57
2023/09/05 00:04:15;;;;;;;;;;;23.30;64.70;;;;;;5091700;28;21527;-57
2023/09/05 00:06:40;;;;;;;;;;;23.30;64.70;;;;;;5094512;28;20002;-56
2023/09/05 00:09:06;;;;;;;;;;;23.30;64.50;;;;;;5094484;28;20279;-57
2023/09/05 00:11:32;;;;;;;;;;;23.30;64.60;;;;;;5093004;28;20364;-56
2023/09/05 00:14:00;;;;;;;;;;;23.30;64.70;;;;;;5094447;28;19916;-56
2023/09/05 00:16:26;;;;;;;;;;;23.30;64.70;;;;;;5094316;28;20360;-56
2023/09/05 00:18:52;;;;;;;;;;;23.30;64.70;;;;;;5092060;28;20003;-56
2023/09/05 00:21:18;;;;;;;;;;;23.30;64.90;;;;;;5094531;28;19923;-57
2023/09/05 00:23:44;;;;;;;;;;;23.30;64.50;;;;;;5093031;28;20390;-57
2023/09/05 00:26:09;;;;;;;;;;;23.30;64.70;;;;;;5078208;28;20011;-57
2023/09/05 00:28:35;;;;;;;;;;;23.30;64.70;;;;;;5071946;28;19938;-56
2023/09/05 00:31:01;;;;;;;;;;;23.30;64.70;;;;;;5074140;28;19909;-57
2023/09/05 00:33:30;;;;;;;;;;;23.30;64.70;;;;;;5073134;28;19915;-56
2023/09/05 00:35:55;;;;;;;;;;;23.30;64.80;;;;;;5092895;28;19917;-57
2023/09/05 00:38:22;;;;;;;;;;;23.30;64.60;;;;;;5093929;28;19908;-56
2023/09/05 00:40:49;;;;;;;;;;;23.30;64.70;;;;;;5092254;28;19912;-57
2023/09/05 00:43:15;;;;;;;;;;;23.20;64.60;;;;;;5093852;28;19908;-56
2023/09/05 00:45:45;;;;;;;;;;;23.20;64.80;;;;;;5093803;28;19952;-57
2023/09/05 00:48:10;;;;;;;;;;;23.20;64.80;;;;;;5093873;28;20036;-56
2023/09/05 00:50:40;;;;;;;;;;;23.20;64.80;;;;;;5090940;28;20392;-57
2023/09/05 00:53:05;;;;;;;;;;;23.20;64.80;;;;;;5093601;28;19919;-57
2023/09/05 00:55:31;;;;;;;;;;;23.20;64.80;;;;;;5083013;28;19994;-57
2023/09/05 00:58:00;;;;;;;;;;;23.20;64.90;;;;;;5073369;28;20360;-56
2023/09/05 01:00:26;;;;;;;;;;;23.20;64.80;;;;;;5085953;28;19951;-57
2023/09/05 01:02:53;;;;;;;;;;;23.30;64.80;;;;;;5092598;28;19919;-57
2023/09/05 01:05:18;;;;;;;;;;;23.20;64.70;;;;;;5091783;28;19912;-57
2023/09/05 01:07:50;;;;;;;;;;;23.30;64.70;;;;;;5093536;28;20321;-56
2023/09/05 01:10:19;;;;;;;;;;;23.20;64.70;;;;;;5093478;28;19915;-57
2023/09/05 01:12:45;;;;;;;;;;;23.20;64.50;;;;;;5091872;28;19914;-56
2023/09/05 01:15:10;;;;;;;;;;;23.20;64.80;;;;;;5093219;28;20015;-58
2023/09/05 01:17:36;;;;;;;;;;;23.20;64.50;;;;;;5093231;28;19908;-58
2023/09/05 01:20:01;;;;;;;;;;;23.20;64.80;;;;;;5088720;28;19973;-56
2023/09/05 01:22:34;;;;;;;;;;;23.20;64.80;;;;;;5093245;28;19912;-56
2023/09/05 01:24:59;;;;;;;;;;;23.20;64.70;;;;;;5087151;28;19973;-57
2023/09/05 01:27:26;;;;;;;;;;;23.20;64.90;;;;;;5072970;28;20360;-57
2023/09/05 01:29:51;;;;;;;;;;;23.20;64.90;;;;;;5077010;28;20292;-57
2023/09/05 01:32:19;;;;;;;;;;;23.20;64.80;;;;;;5088852;28;19912;-56
2023/09/05 01:34:45;;;;;;;;;;;23.10;64.70;;;;;;5073754;28;20282;-56
2023/09/05 01:37:14;;;;;;;;;;;23.10;64.70;;;;;;5093087;28;19995;-56
2023/09/05 01:39:39;;;;;;;;;;;23.10;64.80;;;;;;5091710;28;19939;-57
2023/09/05 01:42:05;;;;;;;;;;;23.20;64.80;;;;;;5091691;28;20383;-56
2023/09/05 01:44:32;;;;;;;;;;;23.20;65.50;;;;;;5093008;28;19912;-56
2023/09/05 01:46:58;;;;;;;;;;;23.10;64.80;;;;;;5093053;28;19912;-57
2023/09/05 01:49:23;;;;;;;;;;;23.10;64.90;;;;;;5092869;28;21031;-56
2023/09/05 01:51:49;;;;;;;;;;;23.10;64.80;;;;;;5090633;28;19912;-56
2023/09/05 01:54:14;;;;;;;;;;;23.10;64.80;;;;;;5092954;28;20348;-57
2023/09/05 01:56:40;;;;;;;;;;;23.10;64.70;;;;;;5072693;28;20397;-58
2023/09/05 01:59:05;;;;;;;;;;;23.10;64.80;;;;;;5072613;28;19919;-57
2023/09/05 02:01:32;;;;;;;;;;;23.10;64.90;;;;;;5088398;28;20009;-56
2023/09/05 02:03:57;;;;;;;;;;;23.10;64.70;;;;;;5076695;28;19933;-57
2023/09/05 02:06:23;;;;;;;;;;;23.10;64.80;;;;;;5087913;28;19916;-56
2023/09/05 02:08:48;;;;;;;;;;;23.10;64.90;;;;;;5097028;28;19915;-56
2023/09/05 02:11:14;;;;;;;;;;;23.10;64.80;;;;;;5096700;28;20348;-56
2023/09/05 02:13:40;;;;;;;;;;;23.10;64.70;;;;;;5085272;28;19916;-56
2023/09/05 02:16:06;;;;;;;;;;;23.10;64.70;;;;;;5096897;28;19908;-56
2023/09/05 02:18:31;;;;;;;;;;;23.10;64.70;;;;;;5096714;28;19942;-56
2023/09/05 02:20:58;;;;;;;;;;;23.10;64.80;;;;;;5093142;28;20321;-56
2023/09/05 02:23:23;;;;;;;;;;;23.00;64.60;;;;;;5094889;28;20428;-57
2023/09/05 02:25:58;;;;;;;;;;;23.00;64.70;;;;;;5082185;28;19913;-56
2023/09/05 02:28:24;;;;;;;;;;;23.00;64.70;;;;;;5076163;28;20007;-56
2023/09/05 02:30:50;;;;;;;;;;;23.00;64.70;;;;;;5075586;28;19948;-56
2023/09/05 02:33:16;;;;;;;;;;;23.00;64.70;;;;;;5076132;28;20421;-56
2023/09/05 02:35:42;;;;;;;;;;;23.00;64.80;;;;;;5077357;28;19961;-57
2023/09/05 02:38:07;;;;;;;;;;;23.00;64.60;;;;;;5096278;28;19944;-56
2023/09/05 02:40:33;;;;;;;;;;;23.00;64.60;;;;;;5093779;28;19919;-56
2023/09/05 02:42:58;;;;;;;;;;;23.00;64.70;;;;;;5092395;28;19919;-57
2023/09/05 02:45:23;;;;;;;;;;;23.00;64.60;;;;;;5096095;28;19908;-56
2023/09/05 02:47:49;;;;;;;;;;;23.00;64.70;;;;;;5096002;28;20028;-56
2023/09/05 02:50:15;;;;;;;;;;;23.00;64.90;;;;;;5096017;28;19985;-55
2023/09/05 02:52:40;;;;;;;;;;;23.00;64.80;;;;;;5092494;28;20396;-56
2023/09/05 02:55:06;;;;;;;;;;;23.00;64.70;;;;;;5088412;28;19972;-57
2023/09/05 02:57:31;;;;;;;;;;;23.00;64.80;;;;;;5075594;28;19948;-57
2023/09/05 02:59:57;;;;;;;;;;;23.00;64.70;;;;;;5075542;28;19917;-56
2023/09/05 03:02:22;;;;;;;;;;;23.00;64.80;;;;;;5089408;28;19961;-56
2023/09/05 03:04:51;;;;;;;;;;;23.00;64.70;;;;;;5095772;28;19912;-57
2023/09/05 03:07:17;;;;;;;;;;;23.00;64.80;;;;;;5092564;28;19908;-56
2023/09/05 03:09:42;;;;;;;;;;;23.00;64.80;;;;;;5094676;28;19957;-56
2023/09/05 03:12:08;;;;;;;;;;;22.90;64.80;;;;;;5095435;28;19930;-57
2023/09/05 03:14:33;;;;;;;;;;;22.90;64.60;;;;;;5093978;28;19941;-56
2023/09/05 03:16:58;;;;;;;;;;;23.00;64.80;;;;;;5095455;28;19912;-56
2023/09/05 03:19:24;;;;;;;;;;;22.90;64.70;;;;;;5095388;28;19912;-57
2023/09/05 03:21:49;;;;;;;;;;;22.90;64.70;;;;;;5093137;28;19912;-56
2023/09/05 03:24:17;;;;;;;;;;;22.90;64.80;;;;;;5095392;28;19912;-57
2023/09/05 03:26:45;;;;;;;;;;;22.90;64.80;;;;;;5074636;28;20318;-57
2023/09/05 03:29:10;;;;;;;;;;;22.90;64.90;;;;;;5074983;28;19916;-56
2023/09/05 03:31:35;;;;;;;;;;;22.90;64.80;;;;;;5076291;28;20332;-56
2023/09/05 03:34:01;;;;;;;;;;;22.90;64.70;;;;;;5095083;28;19912;-56
2023/09/05 03:36:26;;;;;;;;;;;22.90;64.70;;;;;;5092776;28;19908;-56
2023/09/05 03:38:52;;;;;;;;;;;22.90;64.80;;;;;;5095085;28;19916;-57
2023/09/05 03:41:17;;;;;;;;;;;22.80;64.70;;;;;;5093528;28;20046;-56
2023/09/05 03:43:43;;;;;;;;;;;22.80;64.70;;;;;;5094784;28;19951;-57
2023/09/05 03:46:08;;;;;;;;;;;22.80;64.70;;;;;;5094927;28;19915;-56
2023/09/05 03:48:34;;;;;;;;;;;22.80;64.90;;;;;;5094776;28;19922;-56
2023/09/05 03:50:59;;;;;;;;;;;22.80;64.70;;;;;;5094699;28;19981;-56
2023/09/05 03:53:25;;;;;;;;;;;22.80;64.80;;;;;;5091173;28;19918;-56
2023/09/05 03:55:50;;;;;;;;;;;22.80;64.80;;;;;;5081568;28;19992;-56
2023/09/05 03:58:16;;;;;;;;;;;22.80;64.80;;;;;;5074348;28;19909;-56
2023/09/05 04:00:41;;;;;;;;;;;22.80;64.80;;;;;;5073435;28;19912;-56
2023/09/05 04:03:09;;;;;;;;;;;22.80;64.90;;;;;;5093989;28;20276;-56
2023/09/05 04:05:35;;;;;;;;;;;22.80;64.90;;;;;;5094629;28;19908;-56
2023/09/05 04:08:01;;;;;;;;;;;22.80;64.90;;;;;;5092514;28;20300;-57
2023/09/05 04:10:27;;;;;;;;;;;22.80;64.70;;;;;;5094456;28;19915;-57
2023/09/05 04:12:52;;;;;;;;;;;22.80;64.80;;;;;;5087016;28;19912;-56
2023/09/05 04:15:21;;;;;;;;;;;22.80;64.90;;;;;;5094339;28;19919;-57
2023/09/05 04:17:47;;;;;;;;;;;22.80;65.00;;;;;;5094513;28;19908;-57
2023/09/05 04:20:13;;;;;;;;;;;22.70;64.90;;;;;;5094324;28;19919;-56
2023/09/05 04:22:38;;;;;;;;;;;22.70;64.80;;;;;;5088390;28;20015;-56
2023/09/05 04:25:04;;;;;;;;;;;22.70;64.90;;;;;;5086559;28;19918;-57
2023/09/05 04:27:29;;;;;;;;;;;22.70;65.60;;;;;;5074020;28;19909;-56
2023/09/05 04:29:55;;;;;;;;;;;22.70;64.80;;;;;;5073682;28;19915;-57
2023/09/05 04:32:26;;;;;;;;;;;22.70;64.80;;;;;;5088772;28;20021;-56
2023/09/05 04:34:54;;;;;;;;;;;22.70;64.80;;;;;;5094266;28;20387;-57
2023/09/05 04:37:19;;;;;;;;;;;22.80;64.80;;;;;;5091539;28;19919;-56
2023/09/05 04:39:45;;;;;;;;;;;22.70;64.80;;;;;;5087265;28;19916;-55
2023/09/05 04:42:10;;;;;;;;;;;22.70;64.70;;;;;;5093740;28;19916;-55
2023/09/05 04:44:35;;;;;;;;;;;22.70;64.80;;;;;;5087474;28;20392;-55
2023/09/05 04:47:20;;;;;;;;;;;22.70;64.70;;;;;;5073405;28;19963;-55
2023/09/05 04:49:49;;;;;;;;;;;22.70;64.70;;;;;;5079820;28;20044;-54
2023/09/05 04:52:15;;;;;;;;;;;22.70;64.70;;;;;;5086545;28;20010;-55
2023/09/05 04:54:41;;;;;;;;;;;22.70;64.80;;;;;;5072571;28;19912;-55
2023/09/05 04:57:06;;;;;;;;;;;22.70;64.90;;;;;;5088083;28;19919;-55
2023/09/05 04:59:32;;;;;;;;;;;22.70;64.90;;;;;;5093493;28;19997;-55
2023/09/05 05:01:57;;;;;;;;;;;22.60;64.70;;;;;;5093459;28;19912;-55
2023/09/05 05:04:23;;;;;;;;;;;22.70;64.60;;;;;;5093607;28;19950;-56
2023/09/05 05:06:48;;;;;;;;;;;22.70;64.80;;;;;;5089338;28;19958;-55
2023/09/05 05:09:13;;;;;;;;;;;22.60;64.70;;;;;;5093288;28;19912;-55
2023/09/05 05:11:39;;;;;;;;;;;22.70;64.80;;;;;;5093174;28;20019;-55
2023/09/05 05:14:04;;;;;;;;;;;22.70;64.90;;;;;;5090162;28;19998;-55
2023/09/05 05:16:30;;;;;;;;;;;22.60;64.70;;;;;;5093152;28;20372;-55
2023/09/05 05:18:56;;;;;;;;;;;22.60;64.70;;;;;;5093101;28;19912;-55
2023/09/05 05:21:21;;;;;;;;;;;22.70;64.80;;;;;;5090626;28;19912;-55
2023/09/05 05:23:47;;;;;;;;;;;22.60;64.70;;;;;;5093021;28;20360;-55
2023/09/05 05:26:13;;;;;;;;;;;22.60;64.80;;;;;;5076778;28;19947;-55
2023/09/05 05:28:38;;;;;;;;;;;22.60;64.80;;;;;;5073470;28;19921;-55
2023/09/05 05:31:11;;;;;;;;;;;22.60;64.70;;;;;;5092992;28;19912;-55
2023/09/05 05:33:36;;;;;;;;;;;22.60;64.70;;;;;;5099886;28;20283;-55
2023/09/05 05:36:02;;;;;;;;;;;22.60;64.70;;;;;;5088645;28;20011;-55
2023/09/05 05:38:27;;;;;;;;;;;22.60;64.70;;;;;;5091145;28;19919;-55
2023/09/05 05:40:52;;;;;;;;;;;22.60;64.70;;;;;;5092929;28;19943;-55
2023/09/05 05:43:18;;;;;;;;;;;22.60;64.70;;;;;;5091613;28;19909;-55
2023/09/05 05:45:43;;;;;;;;;;;22.50;64.70;;;;;;5091336;28;19916;-55
2023/09/05 05:48:10;;;;;;;;;;;22.60;64.70;;;;;;5072648;28;19909;-56
2023/09/05 05:50:36;;;;;;;;;;;22.60;64.80;;;;;;5072429;28;20049;-56
2023/09/05 05:53:01;;;;;;;;;;;22.60;64.80;;;;;;5085982;28;19975;-56
2023/09/05 05:55:27;;;;;;;;;;;22.50;64.70;;;;;;5082794;28;19909;-55
2023/09/05 05:57:52;;;;;;;;;;;22.60;64.80;;;;;;5072383;28;19909;-55
2023/09/05 06:00:18;;;;;;;;;;;22.50;64.80;;;;;;5088880;28;19923;-55
2023/09/05 06:02:43;;;;;;;;;;;22.60;64.90;;;;;;5092457;28;20011;-55
2023/09/05 06:05:09;;;;;;;;;;;22.50;64.80;;;;;;5092705;28;20425;-55
2023/09/05 06:07:34;;;;;;;;;;;22.50;64.80;;;;;;5089795;28;20019;-55
2023/09/05 06:10:00;;;;;;;;;;;22.50;64.90;;;;;;5092657;28;19912;-55
2023/09/05 06:12:25;;;;;;;;;;;22.50;64.90;;;;;;5092464;28;20256;-56
2023/09/05 06:14:50;;;;;;;;;;;22.50;64.90;;;;;;5088892;28;19939;-55
2023/09/05 06:17:16;;;;;;;;;;;22.50;64.90;;;;;;5091291;28;19916;-55
2023/09/05 06:19:41;;;;;;;;;;;22.50;65.00;;;;;;5092363;28;19912;-55
2023/09/05 06:22:07;;;;;;;;;;;22.50;64.90;;;;;;5090845;28;19911;-55
2023/09/05 06:24:32;;;;;;;;;;;22.50;65.10;;;;;;5089950;28;19951;-55
2023/09/05 06:26:58;;;;;;;;;;;22.50;65.20;;;;;;5072148;28;20287;-55
2023/09/05 06:29:24;;;;;;;;;;;22.50;65.10;;;;;;5072096;28;19912;-55
2023/09/05 06:31:50;;;;;;;;;;;22.50;65.10;;;;;;5089518;28;19998;-55
2023/09/05 06:34:16;;;;;;;;;;;22.40;65.20;;;;;;5092390;28;19923;-55
2023/09/05 06:36:41;;;;;;;;;;;22.50;65.30;;;;;;5089946;28;19908;-55
2023/09/05 06:39:07;;;;;;;;;;;22.40;65.20;;;;;;5092255;28;19961;-55
2023/09/05 06:41:32;;;;;;;;;;;22.40;65.30;;;;;;5092257;28;20007;-55
2023/09/05 06:43:58;;;;;;;;;;;22.40;65.40;;;;;;5092385;28;20232;-55
2023/09/05 06:46:23;;;;;;;;;;;22.40;65.40;;;;;;5092296;28;20386;-55
2023/09/05 06:48:49;;;;;;;;;;;22.40;65.50;;;;;;5091907;28;22086;-55
2023/09/05 06:51:14;;;;;;;;;;;22.40;65.60;;;;;;5095786;28;19920;-55
2023/09/05 06:53:40;;;;;;;;;;;22.40;65.60;;;;;;5093838;28;20011;-56
2023/09/05 06:56:06;;;;;;;;;;;22.40;65.70;;;;;;5080330;28;20014;-55
2023/09/05 06:58:32;;;;;;;;;;;22.40;65.70;;;;;;5074876;28;19949;-55
2023/09/05 07:00:57;;;;;;;;;;;22.40;65.70;;;;;;5093731;28;19919;-55
2023/09/05 07:03:23;;;;;;;;;;;22.40;65.80;;;;;;5094428;28;19927;-55
2023/09/05 07:05:48;;;;;;;;;;;22.40;65.80;;;;;;5095491;28;19961;-55
2023/09/05 07:08:14;;;;;;;;;;;22.40;65.80;;;;;;5093527;28;19916;-55
2023/09/05 07:10:40;;;;;;;;;;;22.40;66.00;;;;;;5095483;28;19958;-55
2023/09/05 07:13:05;;;;;;;;;;;22.40;66.00;;;;;;5095489;28;19912;-55
2023/09/05 07:15:30;;;;;;;;;;;22.40;66.00;;;;;;5093292;28;20003;-55
2023/09/05 07:17:56;;;;;;;;;;;22.40;66.00;;;;;;5095706;28;19912;-55
2023/09/05 07:20:22;;;;;;;;;;;22.40;66.00;;;;;;5094419;28;19925;-55
2023/09/05 07:22:48;;;;;;;;;;;22.40;66.00;;;;;;5092667;28;20452;-55
2023/09/05 07:25:13;;;;;;;;;;;22.40;66.10;;;;;;5089319;28;20010;-55
2023/09/05 07:27:40;;;;;;;;;;;22.40;66.10;;;;;;5084170;28;19912;-55
2023/09/05 07:30:06;;;;;;;;;;;22.40;66.20;;;;;;5075146;28;19909;-55
2023/09/05 07:32:31;;;;;;;;;;;22.40;66.40;;;;;;5074796;28;19909;-55
2023/09/05 07:34:57;;;;;;;;;;;22.40;66.30;;;;;;5084477;28;19957;-55
2023/09/05 07:37:22;;;;;;;;;;;22.50;66.30;;;;;;5090366;28;19912;-55
2023/09/05 07:39:50;;;;;;;;;;;22.40;66.30;;;;;;5090238;28;19916;-55
2023/09/05 07:42:16;;;;;;;;;;;22.40;66.30;;;;;;5074088;28;20026;-55
2023/09/05 07:44:41;;;;;;;;;;;22.40;66.20;;;;;;5074712;28;19959;-55
2023/09/05 07:47:07;;;;;;;;;;;22.40;66.70;;;;;;5074807;28;19948;-56
2023/09/05 07:49:35;;;;;;;;;;;22.40;66.90;;;;;;5084295;28;20433;-55
2023/09/05 07:52:01;;;;;;;;;;;22.40;66.80;;;;;;5092205;28;19919;-56
2023/09/05 07:54:26;;;;;;;;;;;22.40;66.70;;;;;;5093032;28;19999;-55
2023/09/05 07:56:52;;;;;;;;;;;22.40;67.50;;;;;;5074220;28;19912;-55
2023/09/05 07:59:17;;;;;;;;;;;22.40;66.90;;;;;;5084249;28;19924;-55
2023/09/05 08:01:43;;;;;;;;;;;22.40;67.10;;;;;;5085305;28;19966;-55
2023/09/05 08:04:08;;;;;;;;;;;22.40;67.10;;;;;;5074298;28;19908;-55
2023/09/05 08:06:34;;;;;;;;;;;22.40;67.10;;;;;;5078602;28;19916;-55
2023/09/05 08:09:00;;;;;;;;;;;22.50;67.50;;;;;;5094399;28;20364;-56
2023/09/05 08:11:25;;;;;;;;;;;22.50;67.20;;;;;;5094395;28;20046;-55
2023/09/05 08:13:51;;;;;;;;;;;22.50;67.60;;;;;;5094362;28;19919;-55
2023/09/05 08:16:16;;;;;;;;;;;22.40;67.50;;;;;;5091499;28;20395;-56
2023/09/05 08:18:42;;;;;;;;;;;22.50;67.70;;;;;;5094093;28;19919;-55
2023/09/05 08:21:07;;;;;;;;;;;22.50;67.70;;;;;;5092973;28;20433;-55
2023/09/05 08:23:33;;;;;;;;;;;22.50;67.90;;;;;;5073670;28;19909;-55
2023/09/05 08:26:00;;;;;;;;;;;22.50;67.80;;;;;;5073248;28;19912;-55
2023/09/05 08:28:26;;;;;;;;;;;22.50;67.90;;;;;;5072397;28;20419;-55
2023/09/05 08:30:54;;;;;;;;;;;22.50;67.80;;;;;;5072504;28;19913;-55
2023/09/05 08:33:20;;;;;;;;;;;22.50;67.90;;;;;;5088843;28;19938;-56
2023/09/05 08:35:45;;;;;;;;;;;22.60;68.30;;;;;;5093901;28;20333;-55
2023/09/05 08:38:10;;;;;;;;;;;22.60;67.90;;;;;;5092116;28;19935;-55
2023/09/05 08:40:36;;;;;;;;;;;22.70;68.00;;;;;;5093893;28;19978;-55
2023/09/05 08:43:02;;;;;;;;;;;22.70;67.80;;;;;;5092323;28;19912;-55
2023/09/05 08:45:27;;;;;;;;;;;22.80;68.60;;;;;;5093841;28;19908;-55
2023/09/05 08:47:53;;;;;;;;;;;22.80;67.70;;;;;;5092608;28;19908;-56
2023/09/05 08:50:18;;;;;;;;;;;22.80;67.40;;;;;;5093527;28;20410;-56
2023/09/05 08:52:44;;;;;;;;;;;22.90;67.20;;;;;;5089470;28;19958;-55
2023/09/05 08:55:10;;;;;;;;;;;22.80;67.30;;;;;;5084731;28;19908;-57
2023/09/05 08:57:38;;;;;;;;;;;22.90;67.30;;;;;;5072002;28;19909;-55
2023/09/05 09:00:07;;;;;;;;;;;22.90;67.20;;;;;;5072863;28;19947;-55
2023/09/05 09:02:33;;;;;;;;;;;23.00;67.20;;;;;;5093388;28;19908;-55
2023/09/05 09:04:58;;;;;;;;;;;23.00;67.20;;;;;;5093374;28;19996;-56
2023/09/05 09:07:27;;;;;;;;;;;23.00;67.20;;;;;;5090213;28;19923;-56
2023/09/05 09:09:53;;;;;;;;;;;23.00;67.00;;;;;;5093133;28;19908;-55
2023/09/05 09:12:22;;;;;;;;;;;23.00;66.90;;;;;;5093365;28;19958;-55
2023/09/05 09:14:47;;;;;;;;;;;23.00;67.00;;;;;;5088194;28;19913;-55
2023/09/05 09:17:12;;;;;;;;;;;23.10;67.00;;;;;;5092446;28;19915;-55
2023/09/05 09:19:38;;;;;;;;;;;23.10;67.00;;;;;;5093228;28;20011;-55
2023/09/05 09:22:03;;;;;;;;;;;23.10;67.10;;;;;;5090917;28;19916;-55
2023/09/05 09:24:33;;;;;;;;;;;23.30;66.90;;;;;;5088841;28;19923;-55
2023/09/05 09:27:00;;;;;;;;;;;23.30;66.60;;;;;;5078258;28;19916;-55
2023/09/05 09:29:25;;;;;;;;;;;23.40;66.50;;;;;;5093155;28;19915;-56
2023/09/05 09:31:57;;;;;;;;;;;23.40;66.40;;;;;;5093070;28;20380;-55
2023/09/05 09:34:23;;;;;;;;;;;23.40;66.40;;;;;;5084818;28;19912;-56
2023/09/05 09:36:50;;;;;;;;;;;23.40;66.40;;;;;;5073637;28;19919;-56
2023/09/05 09:39:16;;;;;;;;;;;23.40;66.40;;;;;;5091467;28;19912;-56
2023/09/05 09:41:43;;;;;;;;;;;23.50;66.40;;;;;;5092111;28;19963;-56
2023/09/05 09:44:08;;;;;;;;;;;23.50;66.30;;;;;;5090967;28;19994;-55
2023/09/05 09:46:34;;;;;;;;;;;23.50;66.10;;;;;;5092374;28;19966;-56
2023/09/05 09:48:59;;;;;;;;;;;23.50;66.00;;;;;;5091471;28;19908;-56
2023/09/05 09:51:25;;;;;;;;;;;23.70;66.00;;;;;;5092473;28;19927;-56
2023/09/05 09:53:50;;;;;;;;;;;23.80;66.60;;;;;;5090370;28;20372;-56
2023/09/05 09:56:18;;;;;;;;;;;23.80;65.60;;;;;;5074828;28;19912;-56
2023/09/05 09:58:45;;;;;;;;;;;23.80;65.50;;;;;;5072469;28;19970;-56
2023/09/05 10:01:11;;;;;;;;;;;23.80;65.70;;;;;;5072406;28;19961;-56
2023/09/05 10:03:40;;;;;;;;;;;23.80;65.70;;;;;;5087934;28;19998;-56
2023/09/05 10:06:06;;;;;;;;;;;23.90;65.60;;;;;;5092634;28;19977;-56
2023/09/05 10:08:32;;;;;;;;;;;23.90;65.60;;;;;;5089856;28;20316;-56
2023/09/05 10:10:58;;;;;;;;;;;23.90;65.60;;;;;;5092643;28;20383;-56
2023/09/05 10:13:27;;;;;;;;;;;23.90;65.70;;;;;;5087526;28;19942;-56
2023/09/05 10:15:53;;;;;;;;;;;23.80;65.90;;;;;;5087651;28;19925;-56
2023/09/05 10:18:19;;;;;;;;;;;23.80;66.00;;;;;;5091348;28;19908;-56
2023/09/05 10:20:46;;;;;;;;;;;23.80;66.10;;;;;;5092519;28;19920;-56
2023/09/05 10:23:11;;;;;;;;;;;23.80;66.40;;;;;;5089917;28;19912;-56
2023/09/05 10:25:37;;;;;;;;;;;23.90;66.10;;;;;;5092027;28;19970;-56
2023/09/05 10:28:03;;;;;;;;;;;23.90;66.10;;;;;;5096324;28;20433;-56
2023/09/05 10:30:28;;;;;;;;;;;23.80;66.10;;;;;;5095021;28;19947;-56
2023/09/05 10:32:54;;;;;;;;;;;23.80;66.40;;;;;;5091271;28;20426;-56
2023/09/05 10:35:20;;;;;;;;;;;23.80;66.30;;;;;;5076040;28;19908;-56
2023/09/05 10:37:48;;;;;;;;;;;23.90;66.30;;;;;;5076562;28;19986;-56
2023/09/05 10:40:14;;;;;;;;;;;24.10;65.80;;;;;;5095912;28;19912;-55
2023/09/05 10:42:43;;;;;;;;;;;24.10;65.70;;;;;;5096122;28;19958;-56
2023/09/05 10:45:38;;;;;;;;;;;24.20;65.70;;;;;;5092784;28;19938;-56
2023/09/05 10:48:07;;;;;;;;;;;24.30;65.10;;;;;;5073572;28;19909;-56
2023/09/05 10:50:33;;;;;;;;;;;24.40;64.40;;;;;;5095789;28;20229;-56
2023/09/05 10:53:10;;;;;;;;;;;24.50;64.20;;;;;;5092472;28;19920;-56
2023/09/05 10:55:44;;;;;;;;;;;24.50;64.10;;;;;;5083184;28;19909;-55
2023/09/05 10:58:28;;;;;;;;;;;24.60;64.20;;;;;;5082327;28;19916;-56
2023/09/05 11:00:53;;;;;;;;;;;24.70;63.70;;;;;;5081763;28;19916;-56
2023/09/05 11:03:19;;;;;;;;;;;24.70;63.80;;;;;;5095848;28;19933;-56
2023/09/05 11:05:45;;;;;;;;;;;24.80;63.40;;;;;;5095734;28;19978;-56
2023/09/05 11:08:23;;;;;;;;;;;24.90;63.20;;;;;;5091365;28;19912;-56
2023/09/05 11:10:55;;;;;;;;;;;24.90;63.10;;;;;;5075348;28;19974;-56
2023/09/05 11:13:20;;;;;;;;;;;24.90;63.70;;;;;;5080883;28;19908;-56
2023/09/05 11:15:46;;;;;;;;;;;24.90;62.60;;;;;;5075265;28;20288;-56
2023/09/05 11:18:12;;;;;;;;;;;24.90;62.80;;;;;;5076614;28;19913;-55
2023/09/05 11:20:39;;;;;;;;;;;24.90;63.00;;;;;;5095270;28;19919;-56
2023/09/05 11:23:13;;;;;;;;;;;24.90;63.10;;;;;;5094129;28;19962;-56
2023/09/05 11:25:41;;;;;;;;;;;24.80;63.30;;;;;;5075046;28;20186;-56
2023/09/05 11:28:06;;;;;;;;;;;24.90;63.10;;;;;;5072931;28;19909;-58
2023/09/05 11:30:35;;;;;;;;;;;25.00;63.20;;;;;;5074986;28;19915;-56
2023/09/05 11:33:01;;;;;;;;;;;25.00;62.90;;;;;;5074906;28;19909;-56
2023/09/05 11:35:30;;;;;;;;;;;25.10;62.30;;;;;;5082145;28;19912;-56
2023/09/05 11:38:02;;;;;;;;;;;25.20;62.00;;;;;;5095142;28;19909;-56
2023/09/05 11:40:27;;;;;;;;;;;25.30;62.30;;;;;;5092785;28;20022;-56
2023/09/05 11:43:06;;;;;;;;;;;25.30;62.30;;;;;;5095264;28;20390;-56
2023/09/05 11:45:32;;;;;;;;;;;25.20;62.50;;;;;;5093650;28;19935;-56
2023/09/05 11:47:58;;;;;;;;;;;25.20;62.80;;;;;;5094090;28;19912;-56
2023/09/05 11:50:23;;;;;;;;;;;25.10;63.10;;;;;;5094809;28;19920;-56
2023/09/05 11:52:51;;;;;;;;;;;25.10;63.50;;;;;;5093634;28;19975;-56
2023/09/05 11:55:16;;;;;;;;;;;25.30;62.60;;;;;;5084437;28;19912;-56
2023/09/05 11:57:42;;;;;;;;;;;25.30;62.40;;;;;;5092620;28;19919;-56
2023/09/05 12:00:11;;;;;;;;;;;25.40;62.60;;;;;;5094597;28;20007;-57
2023/09/05 12:02:37;;;;;;;;;;;25.40;62.20;;;;;;5093584;28;19940;-56
2023/09/05 12:05:04;;;;;;;;;;;25.40;62.20;;;;;;5093346;28;20010;-56
2023/09/05 12:07:30;;;;;;;;;;;25.30;62.70;;;;;;5094573;28;19909;-56
2023/09/05 12:09:55;;;;;;;;;;;25.40;62.70;;;;;;5092155;28;19966;-56
2023/09/05 12:12:21;;;;;;;;;;;25.40;62.60;;;;;;5094343;28;20424;-56
2023/09/05 12:14:50;;;;;;;;;;;25.50;62.40;;;;;;5091590;28;19951;-56
2023/09/05 12:17:16;;;;;;;;;;;25.60;62.40;;;;;;5092254;28;19954;-56
2023/09/05 12:19:42;;;;;;;;;;;25.60;62.20;;;;;;5090423;28;19959;-56
2023/09/05 12:22:07;;;;;;;;;;;25.60;61.80;;;;;;5094320;28;19958;-56
2023/09/05 12:24:33;;;;;;;;;;;25.60;62.30;;;;;;5088923;28;20356;-56
2023/09/05 12:27:00;;;;;;;;;;;25.60;62.30;;;;;;5093781;28;20275;-56
2023/09/05 12:29:36;;;;;;;;;;;25.60;62.40;;;;;;5092704;28;19931;-56
2023/09/05 12:32:01;;;;;;;;;;;25.50;62.70;;;;;;5094037;28;19988;-56
2023/09/05 12:34:27;;;;;;;;;;;25.70;61.90;;;;;;5093883;28;20360;-56
2023/09/05 12:36:53;;;;;;;;;;;25.90;61.20;;;;;;5091841;28;20295;-56
2023/09/05 12:39:18;;;;;;;;;;;26.00;60.80;;;;;;5091571;28;19916;-56
2023/09/05 12:41:43;;;;;;;;;;;25.90;61.20;;;;;;5093781;28;19914;-56
2023/09/05 12:44:09;;;;;;;;;;;25.90;61.30;;;;;;5092291;28;19947;-56
2023/09/05 12:46:35;;;;;;;;;;;25.80;61.80;;;;;;5089339;28;19916;-56
2023/09/05 12:49:00;;;;;;;;;;;25.80;61.70;;;;;;5093554;28;20002;-56
2023/09/05 12:51:28;;;;;;;;;;;25.80;61.60;;;;;;5089064;28;19959;-56
2023/09/05 12:53:54;;;;;;;;;;;25.80;61.90;;;;;;5090567;28;20385;-56
2023/09/05 12:56:19;;;;;;;;;;;25.70;62.50;;;;;;5082083;28;19912;-56
2023/09/05 12:58:45;;;;;;;;;;;25.60;63.00;;;;;;5079295;28;19970;-56
2023/09/05 13:01:10;;;;;;;;;;;25.70;62.30;;;;;;5088910;28;19916;-56
2023/09/05 13:03:36;;;;;;;;;;;25.80;61.90;;;;;;5078368;28;20032;-56
2023/09/05 13:06:02;;;;;;;;;;;25.90;61.60;;;;;;5087880;28;20335;-56
2023/09/05 13:08:27;;;;;;;;;;;25.90;61.80;;;;;;5082997;28;19912;-56
2023/09/05 13:10:53;;;;;;;;;;;26.00;61.30;;;;;;5085809;28;19919;-56
2023/09/05 13:13:19;;;;;;;;;;;26.10;60.90;;;;;;5085309;28;20364;-57
2023/09/05 13:15:45;;;;;;;;;;;26.10;61.10;;;;;;5093232;28;19958;-56
2023/09/05 13:18:10;;;;;;;;;;;26.10;60.70;;;;;;5091114;28;19913;-56
2023/09/05 13:20:36;;;;;;;;;;;26.10;60.50;;;;;;5072829;28;19923;-56
2023/09/05 13:23:01;;;;;;;;;;;26.00;61.00;;;;;;5081102;28;20388;-56
2023/09/05 13:25:32;;;;;;;;;;;26.10;60.60;;;;;;5083033;28;19909;-56
2023/09/05 13:27:58;;;;;;;;;;;26.20;60.40;;;;;;5082038;28;19992;-56
2023/09/05 13:30:23;;;;;;;;;;;26.20;60.20;;;;;;5093108;28;20367;-56
2023/09/05 13:32:49;;;;;;;;;;;26.20;60.00;;;;;;5090219;28;20113;-56
2023/09/05 13:35:14;;;;;;;;;;;26.30;60.00;;;;;;5093115;28;19912;-56
2023/09/05 13:37:40;;;;;;;;;;;26.30;60.00;;;;;;5090707;28;20380;-56
2023/09/05 13:40:06;;;;;;;;;;;26.20;61.60;;;;;;5092858;28;19912;-56
2023/09/05 13:42:32;;;;;;;;;;;26.00;61.30;;;;;;5091520;28;19912;-56
2023/09/05 13:44:58;;;;;;;;;;;26.20;60.20;;;;;;5092874;28;19931;-56
2023/09/05 13:47:23;;;;;;;;;;;26.20;61.50;;;;;;5092994;28;20360;-56
2023/09/05 13:49:48;;;;;;;;;;;26.10;60.80;;;;;;5092708;28;20011;-56
2023/09/05 13:52:14;;;;;;;;;;;26.00;61.00;;;;;;5090163;28;19942;-56
2023/09/05 13:54:39;;;;;;;;;;;26.10;60.60;;;;;;5089339;28;19910;-56
2023/09/05 13:57:07;;;;;;;;;;;26.20;60.10;;;;;;5073230;28;20407;-56
2023/09/05 13:59:32;;;;;;;;;;;26.40;59.50;;;;;;5076449;28;19920;-57
2023/09/05 14:01:58;;;;;;;;;;;26.60;59.40;;;;;;5075283;28;20280;-56
2023/09/05 14:04:23;;;;;;;;;;;26.50;59.20;;;;;;5094875;28;19953;-57
2023/09/05 14:06:49;;;;;;;;;;;26.50;59.30;;;;;;5096747;28;19912;-56
2023/09/05 14:09:15;;;;;;;;;;;26.40;59.90;;;;;;5094609;28;19916;-56
2023/09/05 14:11:41;;;;;;;;;;;26.50;59.50;;;;;;5096617;28;20291;-56